KDIK/DIK METAR and TAF weather

Enter ICAO airport designator
Station Type Date Time Source
KDIK METAR 2022/06/27 07:56 UTC NOAA

KDIK 270756Z AUTO 18007KT 10SM CLR 10/07 A3027 RMK AO2 SLP244 T01000067


Station Type Date Time Source
KDIK Decoded METAR 2022/06/27 07:56 UTC NOAA

THEODORE ROOSEVELT REGIONAL, ND, United States (KDIK) 46-48N 102-48W 788M
Jun 27, 2022 - 03:56 AM EDT / 2022.06.27 0756 UTC
Wind: from the S (180 degrees) at 8 MPH (7 KT):0
Visibility: 10 mile(s):0
Sky conditions: clear
Temperature: 50.0 F (10.0 C)
Dew Point: 44.1 F (6.7 C)
Relative Humidity: 79%
Pressure (altimeter): 30.27 in. Hg (1025 hPa)
ob: KDIK 270756Z AUTO 18007KT 10SM CLR 10/07 A3027 RMK AO2 SLP244 T01000067
cycle: 8

Station Type Date Time Source
KDIK TAF 2022/06/27 06:33 UTC NOAA

TAF KDIK 270531Z 2706/2806 19007KT P6SM SKC
FM272100 34009KT P6SM FEW080 FEW250

Example: see airport list